»·PEaware :: AAL327 KBOI-KSUN

AAL327 :: KBOI-KSUN

FLIGHT INFORMATION

Flight Status: Arrived
Operator:
American Airlines
More flights by this operator :: More flights under this callsign
Pilot: Sergei F. (8485)
Aircraft: BOEING 737-300
(B733)
More flights by this aircraft type
Origin: KBOI Boise Air Terminal/Gowen
United States
Destination: KSUN Friedman Meml
United States
More flights between these airports :: More routes between these airports
Route: BOI V444 SOLDE HLE
File this flight plan on PilotEdge
Remarks:
Altitude:
(Current/Filed)
13,000ft
Speed:
(Current/Filed)
300kts
Departed: 10-Mar-18 09:36 AM
Arrived: 10-Mar-18 10:10 AM
Distance/Time
Traveled:
84nm/0:34
Distance/Time
To Go:
Arrived

Flight Plot

Page will automatically refresh every two minutes.

Flight plan parsing failed; only flown route is shown


Map Options




Map Legend


Flown Route
Filed Route
Departure Airport
Arrival Airport
Navaid (VOR, NDB)
Fix

Horizontal Profiles

Position Reports

Time Latitude Longitude Heading Altitude Ground
Speed
10-Mar-18 09:02 43.567989 -116.222700 310 2849ft 0kts
10-Mar-18 09:03 43.567989 -116.222700 310 2849ft 0kts
10-Mar-18 09:04 43.567989 -116.222700 310 2849ft 0kts
10-Mar-18 09:05 43.567989 -116.222700 310 2849ft 0kts
10-Mar-18 09:06 43.567989 -116.222700 310 2849ft 0kts
10-Mar-18 09:07 43.567989 -116.222700 310 2849ft 0kts
10-Mar-18 09:08 43.567989 -116.222700 310 2849ft 0kts
10-Mar-18 09:09 43.567989 -116.222700 310 2849ft 0kts
10-Mar-18 09:10 43.567989 -116.222700 310 2849ft 0kts
10-Mar-18 09:11 43.567989 -116.222700 310 2849ft 0kts
10-Mar-18 09:12 43.567989 -116.222700 310 2849ft 0kts
10-Mar-18 09:13 43.567989 -116.222700 310 2849ft 0kts
10-Mar-18 09:14 43.567989 -116.222700 310 2849ft 0kts
10-Mar-18 09:15 43.567989 -116.222700 310 2849ft 0kts
10-Mar-18 09:16 43.567989 -116.222700 310 2849ft 0kts
10-Mar-18 09:17 43.567989 -116.222700 310 2849ft 0kts
10-Mar-18 09:18 43.567989 -116.222700 310 2849ft 0kts
10-Mar-18 09:19 43.567989 -116.222700 310 2849ft 0kts
10-Mar-18 09:20 43.567961 -116.222656 310 2849ft 0kts
10-Mar-18 09:21 43.567484 -116.222653 26 2850ft 0kts
10-Mar-18 09:22 43.567229 -116.222826 26 2849ft 0kts
10-Mar-18 09:23 43.566724 -116.222880 334 2849ft 0kts
10-Mar-18 09:24 43.566603 -116.222664 295 2850ft 0kts
10-Mar-18 09:25 43.566603 -116.222664 295 2850ft 0kts
10-Mar-18 09:26 43.566603 -116.222664 295 2850ft 0kts
10-Mar-18 09:27 43.566603 -116.222664 295 2850ft 0kts
10-Mar-18 09:28 43.566603 -116.222664 295 2850ft 0kts
10-Mar-18 09:29 43.566603 -116.222664 295 2850ft 0kts
10-Mar-18 09:30 43.567385 -116.224939 295 2847ft 11kts
10-Mar-18 09:31 43.568780 -116.229025 295 2841ft 9kts
10-Mar-18 09:32 43.570262 -116.233364 294 2834ft 13kts
10-Mar-18 09:33 43.570953 -116.235521 283 2829ft 0kts
10-Mar-18 09:34 43.570094 -116.236100 149 2830ft 6kts
10-Mar-18 09:35 43.562560 -116.214299 116 2929ft 159kts
10-Mar-18 09:36 43.545355 -116.157273 110 5311ft 174kts
10-Mar-18 09:37 43.528798 -116.091644 110 7652ft 187kts
10-Mar-18 09:38 43.514724 -116.022403 84 10023ft 196kts
10-Mar-18 09:39 43.515631 -115.939655 110 11677ft 235kts
10-Mar-18 09:40 43.486187 -115.847939 124 12968ft 279kts
10-Mar-18 09:41 43.470463 -115.743907 98 13011ft 279kts
10-Mar-18 09:42 43.454481 -115.639601 103 13011ft 279kts
10-Mar-18 09:43 43.435788 -115.536295 103 13011ft 279kts
10-Mar-18 09:44 43.416895 -115.432298 103 13011ft 279kts
10-Mar-18 09:45 43.398209 -115.329803 104 12949ft 279kts
10-Mar-18 09:46 43.379370 -115.226860 104 12973ft 279kts
10-Mar-18 09:47 43.360233 -115.123361 105 12974ft 280kts
10-Mar-18 09:48 43.340484 -115.018446 104 12990ft 286kts
10-Mar-18 09:49 43.320752 -114.912841 103 12996ft 286kts
10-Mar-18 09:50 43.300929 -114.807139 103 13007ft 279kts
10-Mar-18 09:51 43.283392 -114.714073 103 13001ft 243kts
10-Mar-18 09:52 43.266568 -114.625114 103 12999ft 243kts
10-Mar-18 09:53 43.265032 -114.535663 70 12044ft 249kts
10-Mar-18 09:54 43.284513 -114.449070 70 10648ft 228kts
10-Mar-18 09:55 43.302321 -114.369199 70 9231ft 213kts
10-Mar-18 09:56 43.318078 -114.297922 71 8819ft 187kts
10-Mar-18 09:57 43.304580 -114.234748 130 8805ft 189kts
10-Mar-18 09:58 43.255540 -114.216639 171 8773ft 189kts
10-Mar-18 09:59 43.209722 -114.242431 212 8116ft 182kts
10-Mar-18 10:00 43.181793 -114.220593 46 8095ft 181kts
10-Mar-18 10:01 43.226202 -114.210082 346 8108ft 175kts
10-Mar-18 10:02 43.272974 -114.225025 346 8080ft 173kts
10-Mar-18 10:03 43.316265 -114.238327 347 8073ft 145kts
10-Mar-18 10:04 43.355547 -114.248826 350 7856ft 144kts
10-Mar-18 10:05 43.394007 -114.256078 353 7091ft 136kts
10-Mar-18 10:06 43.432505 -114.260817 351 6563ft 142kts
10-Mar-18 10:07 43.471615 -114.268176 339 5788ft 142kts
10-Mar-18 10:08 43.504021 -114.295769 321 5289ft 71kts
10-Mar-18 10:09 43.506291 -114.299485 320 5303ft 6kts
10-Mar-18 10:10 43.506859 -114.300022 325 5306ft 2kts
10-Mar-18 10:11 43.507481 -114.301102 228 5307ft 6kts
10-Mar-18 10:12 43.507302 -114.301371 227 5307ft 0kts
10-Mar-18 10:13 43.507302 -114.301371 227 5307ft 0kts

Navigation Log

Ident Type
Flight plan parsing failed, navigation log unavailable